sensor_id;sensor_type;location;lat;lon;timestamp;P1;durP1;ratioP1;P2;durP2;ratioP2
63587;SDS011;49966;46.896;18.004;2023-08-07T00:01:27;0.73;;;0.63;;
63587;SDS011;49966;46.896;18.004;2023-08-07T00:03:55;2.08;;;0.68;;
63587;SDS011;49966;46.896;18.004;2023-08-07T00:06:24;1.40;;;0.60;;
63587;SDS011;49966;46.896;18.004;2023-08-07T00:08:52;2.47;;;0.60;;
63587;SDS011;49966;46.896;18.004;2023-08-07T00:11:20;0.95;;;0.70;;
63587;SDS011;49966;46.896;18.004;2023-08-07T00:13:50;2.00;;;0.80;;
63587;SDS011;49966;46.896;18.004;2023-08-07T00:16:18;3.40;;;0.75;;
63587;SDS011;49966;46.896;18.004;2023-08-07T00:18:47;4.82;;;1.05;;
63587;SDS011;49966;46.896;18.004;2023-08-07T00:21:15;4.70;;;1.00;;
63587;SDS011;49966;46.896;18.004;2023-08-07T00:23:43;1.50;;;0.75;;
63587;SDS011;49966;46.896;18.004;2023-08-07T00:26:12;1.20;;;0.70;;
63587;SDS011;49966;46.896;18.004;2023-08-07T00:28:40;0.60;;;0.60;;
63587;SDS011;49966;46.896;18.004;2023-08-07T00:31:09;3.92;;;0.80;;
63587;SDS011;49966;46.896;18.004;2023-08-07T00:33:39;1.02;;;0.60;;
63587;SDS011;49966;46.896;18.004;2023-08-07T00:36:07;2.67;;;1.00;;
63587;SDS011;49966;46.896;18.004;2023-08-07T00:38:35;5.28;;;0.90;;
63587;SDS011;49966;46.896;18.004;2023-08-07T00:41:03;3.45;;;1.00;;
63587;SDS011;49966;46.896;18.004;2023-08-07T00:43:34;1.77;;;0.90;;
63587;SDS011;49966;46.896;18.004;2023-08-07T00:46:02;3.35;;;0.70;;
63587;SDS011;49966;46.896;18.004;2023-08-07T00:48:32;1.02;;;0.70;;
63587;SDS011;49966;46.896;18.004;2023-08-07T00:51:00;1.08;;;0.90;;
63587;SDS011;49966;46.896;18.004;2023-08-07T00:53:29;2.92;;;1.00;;
63587;SDS011;49966;46.896;18.004;2023-08-07T00:55:58;3.63;;;0.80;;
63587;SDS011;49966;46.896;18.004;2023-08-07T00:58:27;1.45;;;0.60;;
63587;SDS011;49966;46.896;18.004;2023-08-07T01:00:55;1.05;;;0.57;;
63587;SDS011;49966;46.896;18.004;2023-08-07T01:03:23;4.15;;;1.10;;
63587;SDS011;49966;46.896;18.004;2023-08-07T01:05:53;2.45;;;0.90;;
63587;SDS011;49966;46.896;18.004;2023-08-07T01:08:21;1.15;;;0.73;;
63587;SDS011;49966;46.896;18.004;2023-08-07T01:10:53;3.65;;;0.75;;
63587;SDS011;49966;46.896;18.004;2023-08-07T01:13:40;0.70;;;0.70;;
63587;SDS011;49966;46.896;18.004;2023-08-07T01:16:20;1.08;;;0.82;;
63587;SDS011;49966;46.896;18.004;2023-08-07T01:18:51;3.05;;;1.10;;
63587;SDS011;49966;46.896;18.004;2023-08-07T01:21:23;2.70;;;0.95;;
63587;SDS011;49966;46.896;18.004;2023-08-07T01:23:53;2.17;;;0.70;;
63587;SDS011;49966;46.896;18.004;2023-08-07T01:26:21;2.58;;;0.90;;
63587;SDS011;49966;46.896;18.004;2023-08-07T01:31:36;0.93;;;0.93;;
63587;SDS011;49966;46.896;18.004;2023-08-07T01:34:06;0.95;;;0.90;;
63587;SDS011;49966;46.896;18.004;2023-08-07T01:36:36;5.60;;;1.23;;
63587;SDS011;49966;46.896;18.004;2023-08-07T01:39:08;5.07;;;1.10;;
63587;SDS011;49966;46.896;18.004;2023-08-07T01:41:36;1.55;;;1.13;;
63587;SDS011;49966;46.896;18.004;2023-08-07T01:44:05;7.47;;;1.05;;
63587;SDS011;49966;46.896;18.004;2023-08-07T01:46:33;2.42;;;0.90;;
63587;SDS011;49966;46.896;18.004;2023-08-07T01:49:02;3.47;;;0.60;;
63587;SDS011;49966;46.896;18.004;2023-08-07T01:51:30;2.78;;;1.25;;
63587;SDS011;49966;46.896;18.004;2023-08-07T01:53:58;4.70;;;1.05;;
63587;SDS011;49966;46.896;18.004;2023-08-07T01:56:28;8.70;;;1.08;;
63587;SDS011;49966;46.896;18.004;2023-08-07T01:58:56;3.53;;;1.00;;
63587;SDS011;49966;46.896;18.004;2023-08-07T02:04:01;3.33;;;0.88;;
63587;SDS011;49966;46.896;18.004;2023-08-07T02:06:29;6.22;;;1.27;;
63587;SDS011;49966;46.896;18.004;2023-08-07T02:08:57;6.95;;;1.15;;
63587;SDS011;49966;46.896;18.004;2023-08-07T02:11:26;5.55;;;1.00;;
63587;SDS011;49966;46.896;18.004;2023-08-07T02:13:55;8.52;;;1.35;;
63587;SDS011;49966;46.896;18.004;2023-08-07T02:16:24;10.82;;;1.40;;
63587;SDS011;49966;46.896;18.004;2023-08-07T02:18:53;2.33;;;0.77;;
63587;SDS011;49966;46.896;18.004;2023-08-07T02:21:21;4.20;;;1.23;;
63587;SDS011;49966;46.896;18.004;2023-08-07T02:23:50;1.50;;;0.70;;
63587;SDS011;49966;46.896;18.004;2023-08-07T02:26:18;1.17;;;0.80;;
63587;SDS011;49966;46.896;18.004;2023-08-07T02:28:48;4.45;;;0.95;;
63587;SDS011;49966;46.896;18.004;2023-08-07T02:31:19;3.05;;;1.15;;
63587;SDS011;49966;46.896;18.004;2023-08-07T02:33:48;4.07;;;1.35;;
63587;SDS011;49966;46.896;18.004;2023-08-07T02:36:16;1.73;;;1.02;;
63587;SDS011;49966;46.896;18.004;2023-08-07T02:38:44;0.80;;;0.80;;
63587;SDS011;49966;46.896;18.004;2023-08-07T02:41:12;1.70;;;0.85;;
63587;SDS011;49966;46.896;18.004;2023-08-07T02:43:41;1.02;;;1.02;;
63587;SDS011;49966;46.896;18.004;2023-08-07T02:46:11;3.47;;;0.82;;
63587;SDS011;49966;46.896;18.004;2023-08-07T02:48:39;3.65;;;0.77;;
63587;SDS011;49966;46.896;18.004;2023-08-07T02:51:07;3.38;;;0.77;;
63587;SDS011;49966;46.896;18.004;2023-08-07T02:53:36;1.98;;;1.05;;
63587;SDS011;49966;46.896;18.004;2023-08-07T02:56:04;3.63;;;1.27;;
63587;SDS011;49966;46.896;18.004;2023-08-07T02:58:32;2.30;;;1.10;;
63587;SDS011;49966;46.896;18.004;2023-08-07T03:01:02;5.30;;;1.30;;
63587;SDS011;49966;46.896;18.004;2023-08-07T03:03:33;2.60;;;0.70;;
63587;SDS011;49966;46.896;18.004;2023-08-07T03:06:01;1.85;;;1.10;;
63587;SDS011;49966;46.896;18.004;2023-08-07T03:08:32;6.93;;;1.05;;
63587;SDS011;49966;46.896;18.004;2023-08-07T03:11:00;1.45;;;0.93;;
63587;SDS011;49966;46.896;18.004;2023-08-07T03:13:29;3.33;;;1.05;;
63587;SDS011;49966;46.896;18.004;2023-08-07T03:16:00;3.17;;;1.00;;
63587;SDS011;49966;46.896;18.004;2023-08-07T03:18:32;2.50;;;0.77;;
63587;SDS011;49966;46.896;18.004;2023-08-07T03:21:02;3.85;;;1.20;;
63587;SDS011;49966;46.896;18.004;2023-08-07T03:23:31;5.70;;;1.58;;
63587;SDS011;49966;46.896;18.004;2023-08-07T03:26:03;3.30;;;1.08;;
63587;SDS011;49966;46.896;18.004;2023-08-07T03:28:35;13.43;;;1.40;;
63587;SDS011;49966;46.896;18.004;2023-08-07T03:31:03;3.60;;;0.82;;
63587;SDS011;49966;46.896;18.004;2023-08-07T03:33:33;4.38;;;0.90;;
63587;SDS011;49966;46.896;18.004;2023-08-07T03:36:02;3.40;;;1.08;;
63587;SDS011;49966;46.896;18.004;2023-08-07T03:38:30;3.67;;;0.82;;
63587;SDS011;49966;46.896;18.004;2023-08-07T03:40:58;5.68;;;1.30;;
63587;SDS011;49966;46.896;18.004;2023-08-07T03:43:27;3.00;;;1.02;;
63587;SDS011;49966;46.896;18.004;2023-08-07T03:45:55;5.07;;;1.02;;
63587;SDS011;49966;46.896;18.004;2023-08-07T03:48:28;6.18;;;1.10;;
63587;SDS011;49966;46.896;18.004;2023-08-07T03:51:03;4.05;;;1.05;;
63587;SDS011;49966;46.896;18.004;2023-08-07T03:53:32;1.50;;;0.90;;
63587;SDS011;49966;46.896;18.004;2023-08-07T03:56:00;5.35;;;1.15;;
63587;SDS011;49966;46.896;18.004;2023-08-07T03:58:28;3.53;;;1.15;;
63587;SDS011;49966;46.896;18.004;2023-08-07T04:00:59;9.10;;;1.55;;
63587;SDS011;49966;46.896;18.004;2023-08-07T04:03:27;2.28;;;0.68;;
63587;SDS011;49966;46.896;18.004;2023-08-07T04:05:55;4.70;;;1.20;;
63587;SDS011;49966;46.896;18.004;2023-08-07T04:08:25;4.30;;;0.88;;
63587;SDS011;49966;46.896;18.004;2023-08-07T04:10:57;1.85;;;1.48;;
63587;SDS011;49966;46.896;18.004;2023-08-07T04:13:26;4.20;;;1.15;;
63587;SDS011;49966;46.896;18.004;2023-08-07T04:15:55;3.42;;;1.05;;
63587;SDS011;49966;46.896;18.004;2023-08-07T04:18:24;5.97;;;1.30;;
63587;SDS011;49966;46.896;18.004;2023-08-07T04:20:53;0.80;;;0.63;;
63587;SDS011;49966;46.896;18.004;2023-08-07T04:23:22;6.72;;;0.93;;
63587;SDS011;49966;46.896;18.004;2023-08-07T04:25:52;4.38;;;0.93;;
63587;SDS011;49966;46.896;18.004;2023-08-07T04:28:21;4.65;;;1.17;;
63587;SDS011;49966;46.896;18.004;2023-08-07T04:33:56;2.08;;;1.10;;
63587;SDS011;49966;46.896;18.004;2023-08-07T04:36:26;1.25;;;0.90;;
63587;SDS011;49966;46.896;18.004;2023-08-07T04:38:54;6.20;;;1.20;;
63587;SDS011;49966;46.896;18.004;2023-08-07T04:41:24;7.47;;;1.20;;
63587;SDS011;49966;46.896;18.004;2023-08-07T04:44:37;1.95;;;0.90;;
63587;SDS011;49966;46.896;18.004;2023-08-07T04:47:05;1.50;;;0.85;;
63587;SDS011;49966;46.896;18.004;2023-08-07T04:49:33;2.67;;;1.10;;
63587;SDS011;49966;46.896;18.004;2023-08-07T04:52:02;9.32;;;1.10;;
63587;SDS011;49966;46.896;18.004;2023-08-07T04:54:42;8.25;;;1.38;;
63587;SDS011;49966;46.896;18.004;2023-08-07T04:57:12;1.33;;;1.02;;
63587;SDS011;49966;46.896;18.004;2023-08-07T04:59:40;7.90;;;1.20;;
63587;SDS011;49966;46.896;18.004;2023-08-07T05:02:30;4.93;;;1.80;;
63587;SDS011;49966;46.896;18.004;2023-08-07T05:04:59;4.70;;;1.30;;
63587;SDS011;49966;46.896;18.004;2023-08-07T05:07:32;2.20;;;1.00;;
63587;SDS011;49966;46.896;18.004;2023-08-07T05:13:15;1.85;;;1.25;;
63587;SDS011;49966;46.896;18.004;2023-08-07T05:15:46;3.78;;;1.02;;
63587;SDS011;49966;46.896;18.004;2023-08-07T05:18:17;4.95;;;1.20;;
63587;SDS011;49966;46.896;18.004;2023-08-07T05:20:46;4.13;;;1.20;;
63587;SDS011;49966;46.896;18.004;2023-08-07T05:23:17;3.17;;;1.00;;
63587;SDS011;49966;46.896;18.004;2023-08-07T05:25:45;5.53;;;1.20;;
63587;SDS011;49966;46.896;18.004;2023-08-07T05:28:20;2.40;;;0.93;;
63587;SDS011;49966;46.896;18.004;2023-08-07T05:31:08;0.93;;;0.90;;
63587;SDS011;49966;46.896;18.004;2023-08-07T05:33:39;4.63;;;1.25;;
63587;SDS011;49966;46.896;18.004;2023-08-07T05:36:20;4.53;;;1.20;;
63587;SDS011;49966;46.896;18.004;2023-08-07T05:38:49;5.40;;;1.52;;
63587;SDS011;49966;46.896;18.004;2023-08-07T05:41:17;2.30;;;1.50;;
63587;SDS011;49966;46.896;18.004;2023-08-07T05:43:47;3.70;;;1.30;;
63587;SDS011;49966;46.896;18.004;2023-08-07T05:46:16;1.63;;;1.23;;
63587;SDS011;49966;46.896;18.004;2023-08-07T05:48:44;6.90;;;1.33;;
63587;SDS011;49966;46.896;18.004;2023-08-07T05:51:12;0.90;;;0.90;;
63587;SDS011;49966;46.896;18.004;2023-08-07T05:53:43;5.13;;;1.38;;
63587;SDS011;49966;46.896;18.004;2023-08-07T05:56:12;2.63;;;0.98;;
63587;SDS011;49966;46.896;18.004;2023-08-07T05:58:44;2.35;;;0.80;;
63587;SDS011;49966;46.896;18.004;2023-08-07T06:01:23;1.20;;;0.98;;
63587;SDS011;49966;46.896;18.004;2023-08-07T06:04:02;3.10;;;1.13;;
63587;SDS011;49966;46.896;18.004;2023-08-07T06:06:35;1.52;;;0.93;;
63587;SDS011;49966;46.896;18.004;2023-08-07T06:10:13;0.90;;;0.90;;
63587;SDS011;49966;46.896;18.004;2023-08-07T06:12:15;1.00;;;1.00;;
63587;SDS011;49966;46.896;18.004;2023-08-07T06:14:44;6.32;;;1.00;;
63587;SDS011;49966;46.896;18.004;2023-08-07T06:21:59;4.28;;;1.08;;
63587;SDS011;49966;46.896;18.004;2023-08-07T06:24:30;1.98;;;0.90;;
63587;SDS011;49966;46.896;18.004;2023-08-07T06:27:01;0.90;;;0.90;;
63587;SDS011;49966;46.896;18.004;2023-08-07T06:29:33;4.95;;;0.93;;
63587;SDS011;49966;46.896;18.004;2023-08-07T06:32:02;2.25;;;1.20;;
63587;SDS011;49966;46.896;18.004;2023-08-07T06:34:36;1.23;;;0.90;;
63587;SDS011;49966;46.896;18.004;2023-08-07T06:37:05;1.10;;;0.80;;
63587;SDS011;49966;46.896;18.004;2023-08-07T06:39:40;1.92;;;1.00;;
63587;SDS011;49966;46.896;18.004;2023-08-07T06:42:48;1.05;;;0.88;;
63587;SDS011;49966;46.896;18.004;2023-08-07T06:45:32;2.75;;;1.02;;
63587;SDS011;49966;46.896;18.004;2023-08-07T06:48:13;4.03;;;0.95;;
63587;SDS011;49966;46.896;18.004;2023-08-07T06:51:02;4.80;;;1.08;;
63587;SDS011;49966;46.896;18.004;2023-08-07T06:53:49;5.57;;;1.08;;
63587;SDS011;49966;46.896;18.004;2023-08-07T06:56:21;2.10;;;0.90;;
63587;SDS011;49966;46.896;18.004;2023-08-07T06:58:53;1.27;;;1.00;;
63587;SDS011;49966;46.896;18.004;2023-08-07T07:01:37;1.40;;;0.95;;
63587;SDS011;49966;46.896;18.004;2023-08-07T07:04:28;5.88;;;0.90;;
63587;SDS011;49966;46.896;18.004;2023-08-07T07:07:46;0.82;;;0.73;;
63587;SDS011;49966;46.896;18.004;2023-08-07T07:10:15;1.02;;;1.00;;
63587;SDS011;49966;46.896;18.004;2023-08-07T07:12:45;3.33;;;0.98;;
63587;SDS011;49966;46.896;18.004;2023-08-07T07:15:13;2.47;;;1.10;;
63587;SDS011;49966;46.896;18.004;2023-08-07T07:17:42;1.48;;;0.90;;
63587;SDS011;49966;46.896;18.004;2023-08-07T07:20:14;1.05;;;1.00;;
63587;SDS011;49966;46.896;18.004;2023-08-07T07:25:34;0.98;;;0.85;;
63587;SDS011;49966;46.896;18.004;2023-08-07T07:28:30;2.40;;;0.80;;
63587;SDS011;49966;46.896;18.004;2023-08-07T07:31:01;1.52;;;0.80;;
63587;SDS011;49966;46.896;18.004;2023-08-07T07:33:35;3.85;;;0.88;;
63587;SDS011;49966;46.896;18.004;2023-08-07T07:36:07;1.08;;;0.60;;
63587;SDS011;49966;46.896;18.004;2023-08-07T07:38:46;2.25;;;0.80;;
63587;SDS011;49966;46.896;18.004;2023-08-07T07:41:14;5.47;;;0.75;;
63587;SDS011;49966;46.896;18.004;2023-08-07T07:43:43;0.82;;;0.60;;
63587;SDS011;49966;46.896;18.004;2023-08-07T07:46:11;0.70;;;0.65;;
63587;SDS011;49966;46.896;18.004;2023-08-07T07:48:45;1.50;;;0.70;;
63587;SDS011;49966;46.896;18.004;2023-08-07T07:51:19;1.50;;;0.52;;
63587;SDS011;49966;46.896;18.004;2023-08-07T07:53:49;0.50;;;0.50;;
63587;SDS011;49966;46.896;18.004;2023-08-07T07:56:37;2.25;;;0.85;;
63587;SDS011;49966;46.896;18.004;2023-08-07T07:59:06;0.95;;;0.70;;
63587;SDS011;49966;46.896;18.004;2023-08-07T08:01:35;1.13;;;0.63;;
63587;SDS011;49966;46.896;18.004;2023-08-07T08:04:04;0.60;;;0.60;;
63587;SDS011;49966;46.896;18.004;2023-08-07T08:06:33;2.72;;;0.88;;
63587;SDS011;49966;46.896;18.004;2023-08-07T08:09:08;7.07;;;1.52;;
63587;SDS011;49966;46.896;18.004;2023-08-07T08:11:39;0.63;;;0.63;;
63587;SDS011;49966;46.896;18.004;2023-08-07T08:14:07;1.98;;;0.77;;
63587;SDS011;49966;46.896;18.004;2023-08-07T08:16:36;3.33;;;0.85;;
63587;SDS011;49966;46.896;18.004;2023-08-07T08:19:07;2.85;;;0.70;;
63587;SDS011;49966;46.896;18.004;2023-08-07T08:21:36;1.38;;;0.60;;
63587;SDS011;49966;46.896;18.004;2023-08-07T08:24:08;1.85;;;0.70;;
63587;SDS011;49966;46.896;18.004;2023-08-07T08:26:37;1.17;;;0.77;;
63587;SDS011;49966;46.896;18.004;2023-08-07T08:29:05;1.10;;;1.00;;
63587;SDS011;49966;46.896;18.004;2023-08-07T08:31:34;0.98;;;0.70;;
63587;SDS011;49966;46.896;18.004;2023-08-07T08:34:03;2.17;;;1.20;;
63587;SDS011;49966;46.896;18.004;2023-08-07T08:36:31;0.95;;;0.70;;
63587;SDS011;49966;46.896;18.004;2023-08-07T08:38:59;0.68;;;0.65;;
63587;SDS011;49966;46.896;18.004;2023-08-07T08:41:32;3.67;;;0.82;;
63587;SDS011;49966;46.896;18.004;2023-08-07T08:44:01;2.72;;;0.70;;
63587;SDS011;49966;46.896;18.004;2023-08-07T08:46:34;0.73;;;0.68;;
63587;SDS011;49966;46.896;18.004;2023-08-07T08:49:03;0.73;;;0.73;;
63587;SDS011;49966;46.896;18.004;2023-08-07T08:51:32;0.77;;;0.63;;
63587;SDS011;49966;46.896;18.004;2023-08-07T08:54:01;2.20;;;0.88;;
63587;SDS011;49966;46.896;18.004;2023-08-07T08:56:36;0.88;;;0.60;;
63587;SDS011;49966;46.896;18.004;2023-08-07T08:59:05;0.68;;;0.68;;
63587;SDS011;49966;46.896;18.004;2023-08-07T09:01:35;0.70;;;0.70;;
63587;SDS011;49966;46.896;18.004;2023-08-07T09:04:04;0.47;;;0.47;;
63587;SDS011;49966;46.896;18.004;2023-08-07T09:06:37;0.70;;;0.70;;
63587;SDS011;49966;46.896;18.004;2023-08-07T09:09:11;0.85;;;0.73;;
63587;SDS011;49966;46.896;18.004;2023-08-07T09:11:57;1.10;;;0.40;;
63587;SDS011;49966;46.896;18.004;2023-08-07T09:14:34;1.08;;;0.80;;
63587;SDS011;49966;46.896;18.004;2023-08-07T09:17:08;0.45;;;0.45;;
63587;SDS011;49966;46.896;18.004;2023-08-07T09:19:37;2.75;;;0.90;;
63587;SDS011;49966;46.896;18.004;2023-08-07T09:22:06;0.50;;;0.50;;
63587;SDS011;49966;46.896;18.004;2023-08-07T09:24:35;0.52;;;0.50;;
63587;SDS011;49966;46.896;18.004;2023-08-07T09:27:09;0.40;;;0.40;;
63587;SDS011;49966;46.896;18.004;2023-08-07T09:29:39;0.70;;;0.38;;
63587;SDS011;49966;46.896;18.004;2023-08-07T09:32:13;2.15;;;0.47;;
63587;SDS011;49966;46.896;18.004;2023-08-07T09:39:27;0.50;;;0.50;;
63587;SDS011;49966;46.896;18.004;2023-08-07T09:42:14;0.38;;;0.38;;
63587;SDS011;49966;46.896;18.004;2023-08-07T09:44:43;0.43;;;0.43;;
63587;SDS011;49966;46.896;18.004;2023-08-07T09:47:18;0.80;;;0.50;;
63587;SDS011;49966;46.896;18.004;2023-08-07T09:49:57;1.48;;;0.70;;
63587;SDS011;49966;46.896;18.004;2023-08-07T09:52:29;1.42;;;0.60;;
63587;SDS011;49966;46.896;18.004;2023-08-07T09:55:00;1.70;;;0.95;;
63587;SDS011;49966;46.896;18.004;2023-08-07T09:57:33;0.60;;;0.60;;
63587;SDS011;49966;46.896;18.004;2023-08-07T10:00:10;1.20;;;0.38;;
63587;SDS011;49966;46.896;18.004;2023-08-07T10:02:48;2.83;;;0.63;;
63587;SDS011;49966;46.896;18.004;2023-08-07T10:05:35;0.80;;;0.50;;
63587;SDS011;49966;46.896;18.004;2023-08-07T10:08:04;1.83;;;0.80;;
63587;SDS011;49966;46.896;18.004;2023-08-07T10:10:33;1.85;;;0.65;;
63587;SDS011;49966;46.896;18.004;2023-08-07T10:13:08;0.30;;;0.30;;
63587;SDS011;49966;46.896;18.004;2023-08-07T10:15:38;0.90;;;0.45;;
63587;SDS011;49966;46.896;18.004;2023-08-07T10:18:12;2.72;;;0.43;;
63587;SDS011;49966;46.896;18.004;2023-08-07T10:20:52;8.60;;;0.73;;
63587;SDS011;49966;46.896;18.004;2023-08-07T10:23:27;1.73;;;0.50;;
63587;SDS011;49966;46.896;18.004;2023-08-07T10:25:56;1.75;;;0.52;;
63587;SDS011;49966;46.896;18.004;2023-08-07T10:28:28;0.95;;;0.80;;
63587;SDS011;49966;46.896;18.004;2023-08-07T10:31:00;1.52;;;0.68;;
63587;SDS011;49966;46.896;18.004;2023-08-07T10:33:32;0.55;;;0.55;;
63587;SDS011;49966;46.896;18.004;2023-08-07T10:36:07;0.77;;;0.60;;
63587;SDS011;49966;46.896;18.004;2023-08-07T10:38:37;1.38;;;0.75;;
63587;SDS011;49966;46.896;18.004;2023-08-07T10:41:24;0.70;;;0.70;;
63587;SDS011;49966;46.896;18.004;2023-08-07T10:43:54;0.70;;;0.40;;
63587;SDS011;49966;46.896;18.004;2023-08-07T10:46:26;0.30;;;0.30;;
63587;SDS011;49966;46.896;18.004;2023-08-07T10:48:54;0.52;;;0.50;;
63587;SDS011;49966;46.896;18.004;2023-08-07T10:51:27;1.95;;;0.57;;
63587;SDS011;49966;46.896;18.004;2023-08-07T10:54:07;0.52;;;0.52;;
63587;SDS011;49966;46.896;18.004;2023-08-07T10:56:36;0.57;;;0.57;;
63587;SDS011;49966;46.896;18.004;2023-08-07T10:59:10;1.13;;;0.50;;
63587;SDS011;49966;46.896;18.004;2023-08-07T11:01:40;0.63;;;0.55;;
63587;SDS011;49966;46.896;18.004;2023-08-07T11:04:21;1.30;;;0.50;;
63587;SDS011;49966;46.896;18.004;2023-08-07T11:07:52;0.57;;;0.32;;
63587;SDS011;49966;46.896;18.004;2023-08-07T11:10:21;0.30;;;0.30;;
63587;SDS011;49966;46.896;18.004;2023-08-07T11:12:50;1.90;;;0.35;;
63587;SDS011;49966;46.896;18.004;2023-08-07T11:15:20;0.77;;;0.20;;
63587;SDS011;49966;46.896;18.004;2023-08-07T11:17:48;3.20;;;1.83;;
63587;SDS011;49966;46.896;18.004;2023-08-07T11:20:17;7.25;;;2.30;;
63587;SDS011;49966;46.896;18.004;2023-08-07T11:22:47;8.98;;;2.10;;
63587;SDS011;49966;46.896;18.004;2023-08-07T11:25:19;4.57;;;1.55;;
63587;SDS011;49966;46.896;18.004;2023-08-07T11:27:54;1.25;;;0.52;;
63587;SDS011;49966;46.896;18.004;2023-08-07T11:30:26;0.40;;;0.40;;
63587;SDS011;49966;46.896;18.004;2023-08-07T11:32:55;0.20;;;0.20;;
63587;SDS011;49966;46.896;18.004;2023-08-07T11:35:34;0.52;;;0.30;;
63587;SDS011;49966;46.896;18.004;2023-08-07T11:38:30;2.05;;;0.50;;
63587;SDS011;49966;46.896;18.004;2023-08-07T11:41:01;0.20;;;0.20;;
63587;SDS011;49966;46.896;18.004;2023-08-07T11:43:31;0.30;;;0.20;;
63587;SDS011;49966;46.896;18.004;2023-08-07T11:46:03;0.10;;;0.10;;
63587;SDS011;49966;46.896;18.004;2023-08-07T11:48:42;0.20;;;0.20;;
63587;SDS011;49966;46.896;18.004;2023-08-07T11:51:12;0.30;;;0.30;;
63587;SDS011;49966;46.896;18.004;2023-08-07T11:53:44;0.50;;;0.50;;
63587;SDS011;49966;46.896;18.004;2023-08-07T11:56:29;0.77;;;0.50;;
63587;SDS011;49966;46.896;18.004;2023-08-07T11:58:58;0.32;;;0.30;;
63587;SDS011;49966;46.896;18.004;2023-08-07T12:01:29;1.25;;;0.43;;
63587;SDS011;49966;46.896;18.004;2023-08-07T12:04:08;1.40;;;0.50;;
63587;SDS011;49966;46.896;18.004;2023-08-07T12:06:37;0.20;;;0.20;;
63587;SDS011;49966;46.896;18.004;2023-08-07T12:09:06;0.28;;;0.28;;
63587;SDS011;49966;46.896;18.004;2023-08-07T12:11:40;0.40;;;0.40;;
63587;SDS011;49966;46.896;18.004;2023-08-07T12:14:08;0.30;;;0.30;;
63587;SDS011;49966;46.896;18.004;2023-08-07T12:16:44;0.47;;;0.35;;
63587;SDS011;49966;46.896;18.004;2023-08-07T12:19:19;0.50;;;0.50;;
63587;SDS011;49966;46.896;18.004;2023-08-07T12:21:47;1.98;;;0.40;;
63587;SDS011;49966;46.896;18.004;2023-08-07T12:24:16;0.25;;;0.25;;
63587;SDS011;49966;46.896;18.004;2023-08-07T12:26:46;1.20;;;0.30;;
63587;SDS011;49966;46.896;18.004;2023-08-07T12:29:15;1.20;;;0.20;;
63587;SDS011;49966;46.896;18.004;2023-08-07T12:31:44;0.20;;;0.20;;
63587;SDS011;49966;46.896;18.004;2023-08-07T12:34:13;0.40;;;0.40;;
63587;SDS011;49966;46.896;18.004;2023-08-07T12:36:45;0.35;;;0.35;;
63587;SDS011;49966;46.896;18.004;2023-08-07T12:39:14;0.30;;;0.30;;
63587;SDS011;49966;46.896;18.004;2023-08-07T12:41:43;0.35;;;0.30;;
63587;SDS011;49966;46.896;18.004;2023-08-07T12:44:31;0.85;;;0.52;;
63587;SDS011;49966;46.896;18.004;2023-08-07T12:47:06;0.75;;;0.40;;
63587;SDS011;49966;46.896;18.004;2023-08-07T12:49:35;2.92;;;0.30;;
63587;SDS011;49966;46.896;18.004;2023-08-07T12:52:04;0.20;;;0.20;;
63587;SDS011;49966;46.896;18.004;2023-08-07T12:54:32;0.20;;;0.20;;
63587;SDS011;49966;46.896;18.004;2023-08-07T12:57:03;0.30;;;0.30;;
63587;SDS011;49966;46.896;18.004;2023-08-07T12:59:35;1.25;;;0.22;;
63587;SDS011;49966;46.896;18.004;2023-08-07T13:02:04;0.17;;;0.17;;
63587;SDS011;49966;46.896;18.004;2023-08-07T13:04:36;0.30;;;0.30;;
63587;SDS011;49966;46.896;18.004;2023-08-07T13:07:04;2.05;;;0.30;;
63587;SDS011;49966;46.896;18.004;2023-08-07T13:09:33;0.30;;;0.30;;
63587;SDS011;49966;46.896;18.004;2023-08-07T13:12:02;0.20;;;0.20;;
63587;SDS011;49966;46.896;18.004;2023-08-07T13:14:31;0.35;;;0.20;;
63587;SDS011;49966;46.896;18.004;2023-08-07T13:16:59;0.20;;;0.20;;
63587;SDS011;49966;46.896;18.004;2023-08-07T13:19:27;3.00;;;0.20;;
63587;SDS011;49966;46.896;18.004;2023-08-07T13:21:57;0.80;;;0.40;;
63587;SDS011;49966;46.896;18.004;2023-08-07T13:24:27;0.88;;;0.45;;
63587;SDS011;49966;46.896;18.004;2023-08-07T13:26:56;0.20;;;0.20;;
63587;SDS011;49966;46.896;18.004;2023-08-07T13:29:26;1.08;;;0.28;;
63587;SDS011;49966;46.896;18.004;2023-08-07T13:31:59;1.10;;;0.35;;
63587;SDS011;49966;46.896;18.004;2023-08-07T13:34:37;0.82;;;0.35;;
63587;SDS011;49966;46.896;18.004;2023-08-07T13:39:59;2.33;;;0.30;;
63587;SDS011;49966;46.896;18.004;2023-08-07T13:42:37;1.23;;;0.25;;
63587;SDS011;49966;46.896;18.004;2023-08-07T13:45:06;0.75;;;0.22;;
63587;SDS011;49966;46.896;18.004;2023-08-07T13:47:36;0.22;;;0.22;;
63587;SDS011;49966;46.896;18.004;2023-08-07T13:50:07;0.85;;;0.30;;
63587;SDS011;49966;46.896;18.004;2023-08-07T13:52:41;0.20;;;0.20;;
63587;SDS011;49966;46.896;18.004;2023-08-07T13:55:11;0.20;;;0.20;;
63587;SDS011;49966;46.896;18.004;2023-08-07T13:57:40;0.90;;;0.20;;
63587;SDS011;49966;46.896;18.004;2023-08-07T14:00:10;0.40;;;0.20;;
63587;SDS011;49966;46.896;18.004;2023-08-07T14:02:40;0.68;;;0.30;;
63587;SDS011;49966;46.896;18.004;2023-08-07T14:05:11;2.22;;;0.20;;
63587;SDS011;49966;46.896;18.004;2023-08-07T14:07:42;0.13;;;0.13;;
63587;SDS011;49966;46.896;18.004;2023-08-07T14:10:11;0.17;;;0.17;;
63587;SDS011;49966;46.896;18.004;2023-08-07T14:12:44;0.30;;;0.30;;
63587;SDS011;49966;46.896;18.004;2023-08-07T14:15:17;0.43;;;0.20;;
63587;SDS011;49966;46.896;18.004;2023-08-07T14:17:46;0.75;;;0.28;;
63587;SDS011;49966;46.896;18.004;2023-08-07T14:20:15;0.20;;;0.20;;
63587;SDS011;49966;46.896;18.004;2023-08-07T14:22:46;0.10;;;0.10;;
63587;SDS011;49966;46.896;18.004;2023-08-07T14:25:14;0.10;;;0.10;;
63587;SDS011;49966;46.896;18.004;2023-08-07T14:27:43;0.75;;;0.20;;
63587;SDS011;49966;46.896;18.004;2023-08-07T14:30:13;1.60;;;0.20;;
63587;SDS011;49966;46.896;18.004;2023-08-07T14:32:42;1.33;;;0.52;;
63587;SDS011;49966;46.896;18.004;2023-08-07T14:35:16;0.10;;;0.10;;
63587;SDS011;49966;46.896;18.004;2023-08-07T14:37:46;0.30;;;0.20;;
63587;SDS011;49966;46.896;18.004;2023-08-07T14:40:17;0.20;;;0.20;;
63587;SDS011;49966;46.896;18.004;2023-08-07T14:42:45;1.20;;;0.25;;
63587;SDS011;49966;46.896;18.004;2023-08-07T14:45:14;1.95;;;0.35;;
63587;SDS011;49966;46.896;18.004;2023-08-07T14:47:46;0.20;;;0.20;;
63587;SDS011;49966;46.896;18.004;2023-08-07T14:50:21;0.15;;;0.15;;
63587;SDS011;49966;46.896;18.004;2023-08-07T14:52:51;0.10;;;0.10;;
63587;SDS011;49966;46.896;18.004;2023-08-07T14:55:22;1.25;;;0.20;;
63587;SDS011;49966;46.896;18.004;2023-08-07T14:57:52;0.20;;;0.20;;
63587;SDS011;49966;46.896;18.004;2023-08-07T15:00:20;0.52;;;0.20;;
63587;SDS011;49966;46.896;18.004;2023-08-07T15:02:49;0.32;;;0.20;;
63587;SDS011;49966;46.896;18.004;2023-08-07T15:05:17;0.82;;;0.15;;
63587;SDS011;49966;46.896;18.004;2023-08-07T15:07:46;0.13;;;0.13;;
63587;SDS011;49966;46.896;18.004;2023-08-07T15:10:15;0.10;;;0.10;;
63587;SDS011;49966;46.896;18.004;2023-08-07T15:12:44;0.10;;;0.10;;
63587;SDS011;49966;46.896;18.004;2023-08-07T15:15:13;0.15;;;0.15;;
63587;SDS011;49966;46.896;18.004;2023-08-07T15:17:45;0.20;;;0.20;;
63587;SDS011;49966;46.896;18.004;2023-08-07T15:20:16;0.93;;;0.43;;
63587;SDS011;49966;46.896;18.004;2023-08-07T15:22:49;0.40;;;0.20;;
63587;SDS011;49966;46.896;18.004;2023-08-07T15:25:20;0.20;;;0.20;;
63587;SDS011;49966;46.896;18.004;2023-08-07T15:27:56;0.20;;;0.20;;